createdAt,value
2018-07-26T00:01:06.316Z,0
2018-07-26T00:02:16.136Z,0
2018-07-26T00:03:25.946Z,0
2018-07-26T00:04:36.028Z,0
2018-07-26T00:05:45.859Z,0
2018-07-26T00:06:55.956Z,0
2018-07-26T00:08:06.097Z,0
2018-07-26T00:09:16.173Z,0
2018-07-26T00:10:26.259Z,0
2018-07-26T00:11:36.340Z,0
2018-07-26T00:12:46.155Z,0
2018-07-26T00:13:55.472Z,0
2018-07-26T00:15:05.584Z,0
2018-07-26T00:16:15.673Z,0
2018-07-26T00:17:25.745Z,0
2018-07-26T00:18:35.573Z,0
2018-07-26T00:19:45.135Z,0
2018-07-26T00:20:55.209Z,0
2018-07-26T00:22:05.272Z,0
2018-07-26T00:23:15.345Z,0
2018-07-26T00:24:25.424Z,0
2018-07-26T00:25:35.508Z,0
2018-07-26T00:26:45.582Z,0
2018-07-26T00:27:55.646Z,0
2018-07-26T00:29:05.719Z,0
2018-07-26T00:30:15.800Z,0
2018-07-26T00:31:25.872Z,0
2018-07-26T00:32:35.695Z,0
2018-07-26T00:33:45.768Z,0
2018-07-26T00:34:55.845Z,0
2018-07-26T00:36:05.687Z,0
2018-07-26T00:37:15.774Z,0
2018-07-26T00:38:25.872Z,0
2018-07-26T00:39:35.942Z,0
2018-07-26T00:40:46.003Z,0
2018-07-26T00:41:55.576Z,0
2018-07-26T00:43:05.892Z,0
2018-07-26T00:44:15.981Z,0
2018-07-26T00:45:26.076Z,0
2018-07-26T00:46:36.170Z,0
2018-07-26T00:47:46.253Z,0
2018-07-26T00:48:56.604Z,0
2018-07-26T00:50:06.667Z,0
2018-07-26T00:51:16.760Z,0
2018-07-26T00:52:26.834Z,0
2018-07-26T00:53:36.956Z,0
2018-07-26T00:54:47.036Z,0
2018-07-26T00:55:57.115Z,0
2018-07-26T00:57:07.187Z,0
2018-07-26T00:58:17.251Z,0
2018-07-26T00:59:27.372Z,0
2018-07-26T01:00:37.449Z,0
2018-07-26T01:01:47.523Z,0
2018-07-26T01:02:57.610Z,0
2018-07-26T01:04:07.726Z,0
2018-07-26T01:05:17.597Z,0
2018-07-26T01:06:27.693Z,0
2018-07-26T01:07:37.777Z,0
2018-07-26T01:08:47.826Z,0
2018-07-26T01:09:57.642Z,0
2018-07-26T01:11:07.726Z,0
2018-07-26T01:12:17.791Z,0
2018-07-26T01:13:27.856Z,0
2018-07-26T01:14:37.923Z,0
2018-07-26T01:15:48.011Z,0
2018-07-26T01:16:58.090Z,0
2018-07-26T01:18:08.164Z,0
2018-07-26T01:19:17.982Z,0
2018-07-26T01:20:27.810Z,0
2018-07-26T01:21:37.616Z,0
2018-07-26T01:22:47.693Z,0
2018-07-26T01:23:57.766Z,0
2018-07-26T01:25:07.596Z,0
2018-07-26T01:26:17.406Z,0
2018-07-26T01:27:27.205Z,0
2018-07-26T01:28:37.268Z,0
2018-07-26T01:29:47.083Z,0
2018-07-26T01:30:57.178Z,0
2018-07-26T01:32:07.299Z,0
2018-07-26T01:33:17.361Z,0
2018-07-26T01:34:27.191Z,0
2018-07-26T01:35:37.013Z,0
2018-07-26T01:36:47.092Z,0
2018-07-26T01:37:57.189Z,0
2018-07-26T01:39:07.253Z,0
2018-07-26T01:40:17.320Z,0
2018-07-26T01:41:27.391Z,0
2018-07-26T01:42:37.193Z,0
2018-07-26T01:43:46.996Z,0
2018-07-26T01:44:57.077Z,0
2018-07-26T01:46:07.163Z,0
2018-07-26T01:47:17.249Z,0
2018-07-26T01:48:27.312Z,0
2018-07-26T01:49:37.399Z,0
2018-07-26T01:50:47.222Z,0
2018-07-26T01:51:57.349Z,0
2018-07-26T01:53:07.164Z,0
2018-07-26T01:54:16.727Z,0
2018-07-26T01:55:26.807Z,0
2018-07-26T01:56:36.624Z,0
2018-07-26T01:57:46.716Z,0
2018-07-26T01:58:56.785Z,0
2018-07-26T02:00:06.860Z,0
2018-07-26T02:01:16.941Z,0
2018-07-26T02:02:26.752Z,0
2018-07-26T02:03:36.882Z,0
2018-07-26T02:04:46.951Z,0
2018-07-26T02:05:57.078Z,0
2018-07-26T02:07:07.156Z,0
2018-07-26T02:08:16.965Z,0
2018-07-26T02:09:27.086Z,0
2018-07-26T02:10:36.931Z,0
2018-07-26T02:11:46.741Z,0
2018-07-26T02:12:56.578Z,0
2018-07-26T02:14:06.640Z,0
2018-07-26T02:15:16.504Z,0
2018-07-26T02:16:26.330Z,0
2018-07-26T02:17:36.395Z,0
2018-07-26T02:18:46.480Z,0
2018-07-26T02:19:56.299Z,0
2018-07-26T02:21:06.387Z,0
2018-07-26T02:22:16.205Z,0
2018-07-26T02:23:26.029Z,0
2018-07-26T02:24:36.103Z,0
2018-07-26T02:25:46.173Z,0
2018-07-26T02:26:56.256Z,0
2018-07-26T02:28:06.344Z,0
2018-07-26T02:29:16.413Z,0
2018-07-26T02:30:26.494Z,0
2018-07-26T02:31:36.570Z,0
2018-07-26T02:32:46.658Z,0
2018-07-26T02:33:56.734Z,0
2018-07-26T02:35:06.557Z,0
2018-07-26T02:36:16.643Z,0
2018-07-26T02:37:26.453Z,0
2018-07-26T02:38:36.363Z,0
2018-07-26T02:39:46.432Z,0
2018-07-26T02:40:56.500Z,0
2018-07-26T02:42:06.578Z,0
2018-07-26T02:43:16.667Z,0
2018-07-26T02:44:26.794Z,0
2018-07-26T02:45:36.893Z,0
2018-07-26T02:46:46.739Z,0
2018-07-26T02:47:56.812Z,0
2018-07-26T02:49:06.896Z,0
2018-07-26T02:50:16.970Z,0
2018-07-26T02:51:27.101Z,0
2018-07-26T02:52:37.192Z,0
2018-07-26T02:53:47.000Z,0
2018-07-26T02:54:57.073Z,0
2018-07-26T02:56:07.237Z,0
2018-07-26T02:57:16.791Z,0
2018-07-26T02:58:26.901Z,0
2018-07-26T02:59:36.990Z,0
2018-07-26T03:00:47.080Z,0
2018-07-26T03:01:57.174Z,0
2018-07-26T03:03:07.266Z,0
2018-07-26T03:35:22.530Z,15
2018-07-26T03:36:32.602Z,15
2018-07-26T03:37:42.669Z,15
2018-07-26T03:38:52.483Z,15
2018-07-26T03:40:02.555Z,20
2018-07-26T03:41:12.919Z,20
2018-07-26T03:42:25.737Z,20
2018-07-26T03:43:36.543Z,25
2018-07-26T03:44:46.673Z,25
2018-07-26T03:45:56.470Z,25
2018-07-26T03:47:06.547Z,30
2018-07-26T03:48:16.629Z,30
2018-07-26T03:49:26.454Z,30
2018-07-26T03:50:36.525Z,30
2018-07-26T03:51:46.594Z,30
2018-07-26T03:52:56.790Z,35
2018-07-26T03:54:06.348Z,35
2018-07-26T03:55:16.435Z,35
2018-07-26T03:56:26.541Z,40
2018-07-26T03:57:36.362Z,40
2018-07-26T03:58:46.186Z,40
2018-07-26T03:59:56.260Z,40
2018-07-26T04:01:06.319Z,45
2018-07-26T04:02:16.399Z,45
2018-07-26T04:03:26.725Z,45
2018-07-26T04:04:36.480Z,50
2018-07-26T04:05:46.287Z,50
2018-07-26T04:06:56.086Z,50
2018-07-26T04:08:06.159Z,50
2018-07-26T04:09:16.248Z,50
2018-07-26T04:10:26.383Z,55
2018-07-26T04:11:36.483Z,55
2018-07-26T04:12:46.357Z,60
2018-07-26T04:13:56.203Z,60
2018-07-26T04:15:06.283Z,65
2018-07-26T04:16:16.376Z,70
2018-07-26T04:17:26.442Z,70
2018-07-26T04:18:36.505Z,70
2018-07-26T04:19:46.641Z,75
2018-07-26T04:20:56.437Z,80
2018-07-26T04:22:05.989Z,80
2018-07-26T04:23:16.056Z,85
2018-07-26T04:24:26.134Z,90
2018-07-26T04:25:36.209Z,125
2018-07-26T04:26:46.318Z,190
2018-07-26T04:27:56.391Z,200
2018-07-26T04:29:06.480Z,165
2018-07-26T04:30:16.301Z,140
2018-07-26T04:31:26.114Z,130
2018-07-26T04:32:35.944Z,100
2018-07-26T04:33:46.025Z,105
2018-07-26T04:34:56.098Z,110
2018-07-26T04:36:06.176Z,85
2018-07-26T04:37:16.268Z,85
2018-07-26T04:38:26.080Z,100
2018-07-26T04:39:36.164Z,85
2018-07-26T04:40:46.243Z,85
2018-07-26T04:41:56.105Z,75
2018-07-26T04:43:06.179Z,80
2018-07-26T04:44:16.314Z,80
2018-07-26T04:45:26.426Z,80
2018-07-26T04:46:36.296Z,85
2018-07-26T04:47:46.394Z,85
2018-07-26T04:48:56.662Z,90
2018-07-26T04:50:06.792Z,95
2018-07-26T04:51:16.617Z,115
2018-07-26T04:52:26.446Z,135
2018-07-26T04:53:36.586Z,135
2018-07-26T04:54:47.341Z,125
2018-07-26T04:55:57.176Z,180
2018-07-26T04:57:06.996Z,195
2018-07-26T04:58:17.072Z,400
2018-07-26T04:59:26.882Z,400
2018-07-26T05:00:36.970Z,400
2018-07-26T05:01:47.047Z,405
2018-07-26T05:02:57.180Z,405
2018-07-26T05:04:07.012Z,420
2018-07-26T05:05:17.109Z,400
2018-07-26T05:06:27.182Z,395
2018-07-26T05:07:37.264Z,405
2018-07-26T05:08:47.348Z,400
2018-07-26T05:09:57.171Z,410
2018-07-26T05:11:07.256Z,395
2018-07-26T05:12:17.347Z,390
2018-07-26T05:13:27.430Z,395
2018-07-26T05:14:37.048Z,415
2018-07-26T05:15:47.143Z,410
2018-07-26T05:16:57.211Z,390
2018-07-26T05:18:07.036Z,395
2018-07-26T05:19:17.543Z,395
2018-07-26T05:20:27.655Z,390
2018-07-26T05:21:37.722Z,390
2018-07-26T05:22:47.823Z,390
2018-07-26T05:23:57.643Z,390
2018-07-26T05:25:07.708Z,390
2018-07-26T05:26:17.525Z,390
2018-07-26T05:27:27.599Z,390
2018-07-26T05:28:37.696Z,380
2018-07-26T05:29:47.771Z,380
2018-07-26T05:30:57.570Z,400
2018-07-26T05:32:07.691Z,385
2018-07-26T05:33:17.783Z,365
2018-07-26T05:34:27.850Z,370
2018-07-26T05:35:37.678Z,370
2018-07-26T05:36:47.762Z,360
2018-07-26T05:37:58.080Z,365
2018-07-26T05:39:07.922Z,350
2018-07-26T05:40:18.015Z,340
2018-07-26T05:41:28.088Z,350
2018-07-26T05:42:38.238Z,345
2018-07-26T05:43:48.326Z,340
2018-07-26T05:44:58.404Z,345
2018-07-26T05:46:08.513Z,345
2018-07-26T05:47:18.605Z,350
2018-07-26T05:48:28.416Z,345
2018-07-26T05:49:38.246Z,335
2018-07-26T05:50:48.443Z,330
2018-07-26T05:51:58.546Z,330
2018-07-26T05:53:08.433Z,330
2018-07-26T05:54:18.517Z,325
2018-07-26T05:55:28.333Z,325
2018-07-26T05:56:38.404Z,320
2018-07-26T05:57:48.503Z,325
2018-07-26T05:58:58.327Z,325
2018-07-26T06:00:08.644Z,315
2018-07-26T06:01:18.530Z,320
2018-07-26T06:02:28.596Z,325
2018-07-26T06:03:38.429Z,325
2018-07-26T06:04:48.561Z,300
2018-07-26T06:05:58.652Z,275
2018-07-26T06:07:08.721Z,255
2018-07-26T06:08:18.804Z,195
2018-07-26T06:09:28.888Z,200
2018-07-26T06:10:38.970Z,220
2018-07-26T06:11:49.068Z,195
2018-07-26T06:12:58.880Z,305
2018-07-26T06:14:08.688Z,275
2018-07-26T06:15:18.788Z,230
2018-07-26T06:16:28.910Z,200
2018-07-26T06:17:39.038Z,180
2018-07-26T06:18:49.128Z,180
2018-07-26T06:19:59.239Z,180
2018-07-26T06:21:09.055Z,180
2018-07-26T06:22:18.894Z,175
2018-07-26T06:23:28.704Z,155
2018-07-26T06:24:38.781Z,150
2018-07-26T06:25:48.854Z,145
2018-07-26T06:26:58.930Z,150
2018-07-26T06:28:09.381Z,150
2018-07-26T06:29:19.479Z,160
2018-07-26T06:30:29.041Z,160
2018-07-26T06:31:38.863Z,165
2018-07-26T06:32:48.940Z,175
2018-07-26T06:33:59.126Z,180
2018-07-26T06:35:09.209Z,185
2018-07-26T06:36:19.030Z,195
2018-07-26T06:37:29.114Z,205
2018-07-26T06:38:38.935Z,210
2018-07-26T06:39:49.056Z,210
2018-07-26T06:40:59.140Z,210
2018-07-26T06:42:09.209Z,215
2018-07-26T06:43:19.301Z,215
2018-07-26T06:44:29.116Z,220
2018-07-26T06:45:39.218Z,240
2018-07-26T06:46:49.326Z,245
2018-07-26T06:47:59.403Z,235
2018-07-26T06:49:09.504Z,235
2018-07-26T06:50:19.306Z,235
2018-07-26T06:51:29.391Z,220
2018-07-26T06:52:39.678Z,215
2018-07-26T06:53:49.761Z,220
2018-07-26T06:54:59.826Z,265
2018-07-26T06:56:09.894Z,235
2018-07-26T06:57:19.996Z,240
2018-07-26T06:58:30.062Z,255
2018-07-26T06:59:40.151Z,255
2018-07-26T07:00:50.102Z,235
2018-07-26T07:01:59.966Z,220
2018-07-26T07:03:10.059Z,220
2018-07-26T07:04:19.861Z,210
2018-07-26T07:05:29.962Z,215
2018-07-26T07:06:40.050Z,210
2018-07-26T07:07:50.162Z,215
2018-07-26T07:09:00.240Z,215
2018-07-26T07:10:10.315Z,215
2018-07-26T07:11:20.471Z,215
2018-07-26T07:12:30.300Z,215
2018-07-26T07:13:40.159Z,220
2018-07-26T07:14:50.234Z,220
2018-07-26T07:16:00.301Z,210
2018-07-26T07:17:10.402Z,195
2018-07-26T07:18:20.479Z,185
2018-07-26T07:19:30.326Z,185
2018-07-26T07:20:40.293Z,180
2018-07-26T07:21:50.357Z,180
2018-07-26T07:22:59.919Z,180
2018-07-26T07:24:10.020Z,185
2018-07-26T07:25:19.886Z,190
2018-07-26T07:26:29.456Z,185
2018-07-26T07:27:39.558Z,180
2018-07-26T07:28:48.828Z,175
2018-07-26T07:29:59.052Z,165
2018-07-26T07:31:09.226Z,165
2018-07-26T07:32:19.336Z,165
2018-07-26T07:33:29.307Z,155
2018-07-26T07:34:39.193Z,160
2018-07-26T07:35:49.334Z,185
2018-07-26T07:36:59.524Z,170
2018-07-26T07:38:09.356Z,185
2018-07-26T07:39:19.161Z,185
2018-07-26T07:40:28.723Z,180
2018-07-26T07:41:38.863Z,180
2018-07-26T07:42:49.012Z,180
2018-07-26T07:43:58.835Z,180
2018-07-26T07:45:08.970Z,180
2018-07-26T07:46:18.839Z,180
2018-07-26T07:47:29.061Z,180
2018-07-26T07:48:39.160Z,180
2018-07-26T07:49:48.992Z,180
2018-07-26T07:50:59.106Z,180
2018-07-26T07:52:09.197Z,180
2018-07-26T07:53:19.279Z,180
2018-07-26T07:54:29.375Z,180
2018-07-26T07:55:39.462Z,180
2018-07-26T07:56:49.560Z,180
2018-07-26T07:57:59.659Z,180
2018-07-26T07:59:09.806Z,180
2018-07-26T08:00:19.902Z,185
2018-07-26T08:01:29.965Z,185
2018-07-26T08:02:39.788Z,185
2018-07-26T08:03:49.614Z,180
2018-07-26T08:04:59.749Z,180
2018-07-26T08:06:09.833Z,185
2018-07-26T08:07:19.678Z,180
2018-07-26T08:08:29.515Z,185
2018-07-26T08:09:39.358Z,185
2018-07-26T08:10:49.424Z,185
2018-07-26T08:11:59.243Z,185
2018-07-26T08:13:09.315Z,190
2018-07-26T08:14:18.875Z,185
2018-07-26T08:15:28.705Z,190
2018-07-26T08:16:38.827Z,190
2018-07-26T08:17:48.909Z,190
2018-07-26T08:18:58.981Z,195
2018-07-26T08:20:09.071Z,195
2018-07-26T08:21:19.448Z,195
2018-07-26T08:22:29.597Z,195
2018-07-26T08:23:39.684Z,200
2018-07-26T08:24:49.509Z,200
2018-07-26T08:25:59.581Z,200
2018-07-26T08:27:09.403Z,200
2018-07-26T08:28:19.226Z,200
2018-07-26T08:29:29.599Z,200
2018-07-26T08:30:39.228Z,205
2018-07-26T08:31:49.322Z,205
2018-07-26T08:32:59.394Z,205
2018-07-26T08:34:09.531Z,210
2018-07-26T08:35:20.022Z,210
2018-07-26T08:36:30.108Z,210
2018-07-26T08:37:40.181Z,210
2018-07-26T08:38:50.285Z,215
2018-07-26T08:39:59.898Z,215
2018-07-26T08:41:09.911Z,220
2018-07-26T08:42:19.436Z,220
2018-07-26T08:43:29.518Z,220
2018-07-26T08:44:39.598Z,220
2018-07-26T08:45:49.425Z,225
2018-07-26T08:46:59.261Z,230
2018-07-26T08:48:09.474Z,230
2018-07-26T08:49:19.549Z,235
2018-07-26T08:50:29.628Z,235
2018-07-26T08:51:39.716Z,240
2018-07-26T08:52:49.540Z,245
2018-07-26T08:53:59.353Z,245
2018-07-26T08:55:09.485Z,250
2018-07-26T08:56:19.575Z,255
2018-07-26T08:57:29.686Z,260
2018-07-26T08:58:39.515Z,260
2018-07-26T08:59:49.656Z,265
2018-07-26T09:00:59.777Z,270
2018-07-26T09:02:10.120Z,275
2018-07-26T09:03:21.510Z,255
2018-07-26T09:04:33.541Z,265
2018-07-26T09:05:49.149Z,235
2018-07-26T09:07:02.292Z,295
2018-07-26T09:08:12.253Z,240
2018-07-26T09:09:22.495Z,290
2018-07-26T09:10:32.603Z,300
2018-07-26T09:11:42.988Z,300
2018-07-26T09:12:53.100Z,315
2018-07-26T09:14:03.275Z,320
2018-07-26T09:15:13.378Z,330
2018-07-26T09:16:23.457Z,325
2018-07-26T09:17:33.287Z,325
2018-07-26T09:18:43.376Z,330
2018-07-26T09:19:53.887Z,330
2018-07-26T09:21:03.724Z,340
2018-07-26T09:22:13.814Z,335
2018-07-26T09:23:23.912Z,340
2018-07-26T09:24:34.309Z,340
2018-07-26T09:25:44.457Z,345
2018-07-26T09:26:54.550Z,340
2018-07-26T09:28:04.636Z,340
2018-07-26T09:29:14.707Z,340
2018-07-26T09:30:24.810Z,280
2018-07-26T09:31:34.687Z,335
2018-07-26T09:32:44.770Z,280
2018-07-26T09:33:54.591Z,265
2018-07-26T09:35:04.680Z,260
2018-07-26T09:36:14.499Z,260
2018-07-26T09:37:24.604Z,295
2018-07-26T09:38:34.682Z,330
2018-07-26T09:39:43.980Z,335
2018-07-26T09:40:54.076Z,350
2018-07-26T09:42:04.155Z,340
2018-07-26T09:43:14.255Z,280
2018-07-26T09:44:24.067Z,340
2018-07-26T09:45:33.889Z,335
2018-07-26T09:46:43.977Z,335
2018-07-26T09:47:53.802Z,335
2018-07-26T09:49:03.874Z,330
2018-07-26T09:50:13.961Z,330
2018-07-26T09:51:24.045Z,300
2018-07-26T09:52:34.159Z,335
2018-07-26T09:53:44.007Z,340
2018-07-26T09:54:54.153Z,330
2018-07-26T09:56:04.256Z,305
2018-07-26T09:57:14.066Z,280
2018-07-26T09:58:24.247Z,290
2018-07-26T09:59:34.066Z,290
2018-07-26T10:00:44.143Z,290
2018-07-26T10:01:53.980Z,290
2018-07-26T10:03:04.299Z,295
2018-07-26T10:04:14.388Z,305
2018-07-26T10:05:24.496Z,320
2018-07-26T10:06:34.708Z,320
2018-07-26T10:07:44.796Z,315
2018-07-26T10:08:54.890Z,320
2018-07-26T10:10:05.002Z,325
2018-07-26T10:11:14.800Z,325
2018-07-26T10:12:24.669Z,330
2018-07-26T10:13:34.772Z,330
2018-07-26T10:14:44.913Z,330
2018-07-26T10:15:55.061Z,305
2018-07-26T10:17:04.913Z,310
2018-07-26T10:18:15.054Z,300
2018-07-26T10:19:24.605Z,300
2018-07-26T10:20:34.695Z,280
2018-07-26T10:21:44.789Z,275
2018-07-26T10:22:54.867Z,280
2018-07-26T10:24:04.944Z,290
2018-07-26T10:25:15.018Z,290
2018-07-26T10:26:25.112Z,305
2018-07-26T10:27:35.213Z,310
2018-07-26T10:28:45.079Z,315
2018-07-26T10:29:54.655Z,300
2018-07-26T10:31:04.486Z,290
2018-07-26T10:32:14.306Z,260
2018-07-26T10:33:24.398Z,245
2018-07-26T10:34:34.494Z,250
2018-07-26T10:35:44.574Z,255
2018-07-26T10:36:54.710Z,245
2018-07-26T10:38:04.548Z,250
2018-07-26T10:39:14.668Z,240
2018-07-26T10:40:24.787Z,210
2018-07-26T10:41:34.851Z,215
2018-07-26T10:42:44.985Z,210
2018-07-26T10:43:54.815Z,240
2018-07-26T10:45:04.642Z,220
2018-07-26T10:46:14.734Z,235
2018-07-26T10:47:24.560Z,225
2018-07-26T10:48:34.916Z,215
2018-07-26T10:49:45.031Z,215
2018-07-26T10:50:55.134Z,285
2018-07-26T10:52:04.719Z,290
2018-07-26T10:53:14.817Z,305
2018-07-26T10:54:24.691Z,300
2018-07-26T10:55:34.771Z,255
2018-07-26T10:56:44.600Z,265
2018-07-26T10:57:53.897Z,280
2018-07-26T10:59:03.466Z,285
2018-07-26T11:00:13.387Z,300
2018-07-26T11:01:22.946Z,300
2018-07-26T11:02:32.826Z,300
2018-07-26T11:03:43.189Z,300
2018-07-26T11:04:52.705Z,190
2018-07-26T11:06:02.822Z,205
2018-07-26T11:07:12.914Z,280
2018-07-26T11:08:23.006Z,190
2018-07-26T11:09:33.206Z,280
2018-07-26T11:10:43.325Z,285
2018-07-26T11:11:53.408Z,285
2018-07-26T11:13:03.516Z,295
2018-07-26T11:14:13.597Z,310
2018-07-26T11:15:23.598Z,305
2018-07-26T11:16:33.899Z,295
2018-07-26T11:17:43.465Z,275
2018-07-26T11:18:53.356Z,275
2018-07-26T11:20:03.445Z,275
2018-07-26T11:21:13.541Z,220
2018-07-26T11:22:23.633Z,205
2018-07-26T11:23:33.491Z,300
2018-07-26T11:24:43.563Z,315
2018-07-26T11:25:54.094Z,310
2018-07-26T11:27:03.955Z,305
2018-07-26T11:28:14.081Z,305
2018-07-26T11:29:24.213Z,295
2018-07-26T11:30:34.296Z,285
2018-07-26T11:31:44.357Z,290
2018-07-26T11:32:54.474Z,280
2018-07-26T11:34:04.302Z,260
2018-07-26T11:35:14.455Z,180
2018-07-26T11:36:24.294Z,180
2018-07-26T11:37:34.381Z,305
2018-07-26T11:38:44.473Z,315
2018-07-26T11:39:54.543Z,305
2018-07-26T11:41:04.700Z,295
2018-07-26T11:42:14.556Z,285
2018-07-26T11:43:24.665Z,175
2018-07-26T11:44:34.756Z,210
2018-07-26T11:45:44.579Z,195
2018-07-26T11:46:54.724Z,220
2018-07-26T11:48:04.803Z,265
2018-07-26T11:49:14.889Z,265
2018-07-26T11:50:24.950Z,275
2018-07-26T11:51:35.064Z,275
2018-07-26T11:52:45.094Z,280
2018-07-26T11:53:54.941Z,295
2018-07-26T11:55:04.762Z,295
2018-07-26T11:56:14.583Z,315
2018-07-26T11:57:24.696Z,310
2018-07-26T11:58:34.787Z,300
2018-07-26T11:59:44.607Z,280
2018-07-26T12:00:54.499Z,300
2018-07-26T12:02:04.605Z,310
2018-07-26T12:03:14.802Z,300
2018-07-26T12:04:24.882Z,285
2018-07-26T12:05:34.715Z,280
2018-07-26T12:06:44.559Z,270
2018-07-26T12:07:54.655Z,270
2018-07-26T12:09:04.755Z,275
2018-07-26T12:10:14.844Z,275
2018-07-26T12:11:24.417Z,275
2018-07-26T12:12:34.539Z,275
2018-07-26T12:13:44.630Z,280
2018-07-26T12:14:54.208Z,275
2018-07-26T12:16:04.281Z,280
2018-07-26T12:17:14.113Z,280
2018-07-26T12:18:24.198Z,180
2018-07-26T12:19:34.369Z,200
2018-07-26T12:20:44.464Z,215
2018-07-26T12:21:54.287Z,240
2018-07-26T12:23:04.564Z,300
2018-07-26T12:24:14.428Z,295
2018-07-26T12:25:24.262Z,290
2018-07-26T12:26:34.096Z,285
2018-07-26T12:27:43.925Z,265
2018-07-26T12:28:54.012Z,255
2018-07-26T12:30:03.833Z,255
2018-07-26T12:31:13.934Z,255
2018-07-26T12:32:24.070Z,250
2018-07-26T12:33:33.912Z,250
2018-07-26T12:34:44.054Z,250
2018-07-26T12:35:54.497Z,250
2018-07-26T12:37:04.379Z,260
2018-07-26T12:38:13.990Z,260
2018-07-26T12:39:24.072Z,260
2018-07-26T12:40:34.175Z,260
2018-07-26T12:41:44.277Z,215
2018-07-26T12:42:53.825Z,260
2018-07-26T12:44:03.928Z,265
2018-07-26T12:45:13.759Z,245
2018-07-26T12:46:24.075Z,185
2018-07-26T12:47:34.536Z,295
2018-07-26T12:48:44.695Z,305
2018-07-26T12:49:54.786Z,315
2018-07-26T12:51:04.624Z,320
2018-07-26T12:52:14.726Z,325
2018-07-26T12:53:24.869Z,330
2018-07-26T12:54:34.991Z,345
2018-07-26T12:55:45.512Z,260
2018-07-26T12:56:55.279Z,275
2018-07-26T12:58:05.360Z,300
2018-07-26T12:59:15.200Z,330
2018-07-26T13:00:25.289Z,355
2018-07-26T13:01:35.792Z,350
2018-07-26T13:02:45.890Z,255
2018-07-26T13:03:55.998Z,265
2018-07-26T13:05:06.115Z,245
2018-07-26T13:06:16.222Z,245
2018-07-26T13:07:26.505Z,235
2018-07-26T13:08:36.596Z,315
2018-07-26T13:09:46.173Z,295
2018-07-26T13:10:55.991Z,270
2018-07-26T13:12:05.291Z,180
2018-07-26T13:13:15.174Z,210
2018-07-26T13:14:25.273Z,145
2018-07-26T13:15:35.369Z,135
2018-07-26T13:16:45.517Z,130
2018-07-26T13:17:55.618Z,130
2018-07-26T13:19:05.704Z,130
2018-07-26T13:20:15.802Z,125
2018-07-26T13:21:25.637Z,125
2018-07-26T13:22:35.747Z,125
2018-07-26T13:23:45.834Z,125
2018-07-26T13:24:55.946Z,125
2018-07-26T13:26:06.078Z,130
2018-07-26T13:27:15.800Z,185
2018-07-26T13:28:26.003Z,170
2018-07-26T13:29:36.125Z,135
2018-07-26T13:30:45.745Z,135
2018-07-26T13:31:55.827Z,130
2018-07-26T13:33:05.932Z,135
2018-07-26T13:34:16.151Z,165
2018-07-26T13:35:26.273Z,215
2018-07-26T13:36:36.141Z,205
2018-07-26T13:37:46.243Z,165
2018-07-26T13:38:56.067Z,230
2018-07-26T13:40:06.724Z,235
2018-07-26T13:41:16.852Z,235
2018-07-26T13:42:26.994Z,235
2018-07-26T13:43:37.101Z,235
2018-07-26T13:44:47.185Z,240
2018-07-26T13:45:57.002Z,245
2018-07-26T13:47:06.839Z,245
2018-07-26T13:48:16.925Z,235
2018-07-26T13:49:27.029Z,255
2018-07-26T13:50:37.136Z,265
2018-07-26T13:51:47.227Z,275
2018-07-26T13:52:57.326Z,285
2018-07-26T13:54:07.482Z,285
2018-07-26T13:55:17.598Z,285
2018-07-26T13:56:27.686Z,285
2018-07-26T13:57:37.525Z,275
2018-07-26T13:58:47.623Z,270
2018-07-26T13:59:57.501Z,190
2018-07-26T14:01:07.618Z,190
2018-07-26T14:02:17.448Z,185
2018-07-26T14:03:27.547Z,185
2018-07-26T14:04:37.652Z,185
2018-07-26T14:05:47.745Z,195
2018-07-26T14:06:57.855Z,205
2018-07-26T14:08:07.952Z,225
2018-07-26T14:09:18.037Z,275
2018-07-26T14:10:28.159Z,270
2018-07-26T14:11:38.409Z,300
2018-07-26T14:12:48.269Z,275
2018-07-26T14:13:58.085Z,300
2018-07-26T14:15:07.920Z,300
2018-07-26T14:16:18.226Z,215
2018-07-26T14:17:28.329Z,195
2018-07-26T14:18:38.464Z,185
2018-07-26T14:19:48.035Z,210
2018-07-26T14:20:58.389Z,165
2018-07-26T14:22:08.534Z,150
2018-07-26T14:23:18.360Z,190
2018-07-26T14:24:28.755Z,175
2018-07-26T14:25:38.835Z,130
2018-07-26T14:26:48.928Z,115
2018-07-26T14:27:58.962Z,85
2018-07-26T14:29:08.827Z,80
2018-07-26T14:30:18.932Z,80
2018-07-26T14:31:29.043Z,85
2018-07-26T14:32:39.219Z,85
2018-07-26T14:33:49.305Z,95
2018-07-26T14:34:59.451Z,110
2018-07-26T14:36:09.554Z,110
2018-07-26T14:37:19.383Z,120
2018-07-26T14:38:29.766Z,120
2018-07-26T14:39:39.886Z,125
2018-07-26T14:40:49.992Z,125
2018-07-26T14:42:00.098Z,125
2018-07-26T14:43:09.907Z,125
2018-07-26T14:44:19.761Z,120
2018-07-26T14:45:29.876Z,110
2018-07-26T14:46:39.709Z,105
2018-07-26T14:47:49.820Z,105
2018-07-26T14:48:59.936Z,105
2018-07-26T14:50:10.061Z,95
2018-07-26T14:51:19.881Z,95
2018-07-26T14:52:30.081Z,95
2018-07-26T14:53:40.172Z,95
2018-07-26T14:54:50.012Z,95
2018-07-26T14:55:59.850Z,100
2018-07-26T14:57:09.687Z,95
2018-07-26T14:58:19.780Z,100
2018-07-26T14:59:29.602Z,105
2018-07-26T15:00:40.029Z,110
2018-07-26T15:01:50.135Z,110
2018-07-26T15:02:59.951Z,115
2018-07-26T15:04:10.470Z,120
2018-07-26T15:05:20.646Z,125
2018-07-26T15:06:30.953Z,130
2018-07-26T15:07:41.048Z,130
2018-07-26T15:08:51.161Z,140
2018-07-26T15:10:01.304Z,145
2018-07-26T15:11:11.133Z,145
2018-07-26T15:12:21.256Z,150
2018-07-26T15:13:31.351Z,155
2018-07-26T15:14:41.447Z,165
2018-07-26T15:15:51.528Z,170
2018-07-26T15:17:01.348Z,175
2018-07-26T15:18:11.182Z,185
2018-07-26T15:19:21.031Z,185
2018-07-26T15:20:31.332Z,210
2018-07-26T15:21:41.158Z,230
2018-07-26T15:22:51.229Z,235
2018-07-26T15:24:01.320Z,240
2018-07-26T15:25:11.151Z,235
2018-07-26T15:26:21.656Z,215
2018-07-26T15:27:31.908Z,220
2018-07-26T15:28:41.719Z,225
2018-07-26T15:29:51.837Z,230
2018-07-26T15:31:01.944Z,260
2018-07-26T15:32:12.041Z,260
2018-07-26T15:33:22.193Z,260
2018-07-26T15:34:32.280Z,255
2018-07-26T15:35:41.855Z,245
2018-07-26T15:36:51.668Z,235
2018-07-26T15:38:02.383Z,225
2018-07-26T15:39:12.497Z,215
2018-07-26T15:40:22.622Z,200
2018-07-26T15:41:32.970Z,195
2018-07-26T15:42:42.692Z,180
2018-07-26T15:43:52.824Z,165
2018-07-26T15:45:02.967Z,120
2018-07-26T15:46:13.064Z,115
2018-07-26T15:47:23.180Z,105
2018-07-26T15:48:33.283Z,100
2018-07-26T15:49:43.383Z,100
2018-07-26T15:50:53.553Z,100
2018-07-26T15:52:03.402Z,100
2018-07-26T15:53:13.252Z,100
2018-07-26T15:54:23.351Z,100
2018-07-26T15:55:33.590Z,100
2018-07-26T15:56:43.755Z,90
2018-07-26T15:57:53.855Z,75
2018-07-26T15:59:03.935Z,75
2018-07-26T16:00:13.771Z,65
2018-07-26T16:01:23.608Z,60
2018-07-26T16:02:33.528Z,55
2018-07-26T16:03:43.552Z,45
2018-07-26T16:04:53.685Z,40
2018-07-26T16:06:03.795Z,30
2018-07-26T16:07:13.636Z,30
2018-07-26T16:08:23.730Z,25
2018-07-26T16:09:33.865Z,20
2018-07-26T16:10:43.972Z,15
2018-07-26T16:11:54.085Z,15
2018-07-26T16:13:04.183Z,20
2018-07-26T16:14:14.316Z,20
2018-07-26T16:15:24.402Z,20
2018-07-26T16:16:34.508Z,20
2018-07-26T16:17:44.555Z,15
2018-07-26T16:18:54.484Z,15
2018-07-26T16:20:04.708Z,15
2018-07-26T16:21:14.814Z,15
2018-07-26T16:22:25.515Z,15
2018-07-26T16:23:35.657Z,15
2018-07-26T16:24:45.734Z,15
2018-07-26T16:25:55.814Z,15
2018-07-26T16:27:05.918Z,15
2018-07-26T16:28:16.010Z,15
2018-07-26T16:29:26.113Z,15
2018-07-26T16:30:35.976Z,15
2018-07-26T16:31:46.072Z,15
2018-07-26T16:32:56.170Z,15
2018-07-26T16:34:06.536Z,15
2018-07-26T16:35:16.206Z,15
2018-07-26T16:36:26.329Z,20
2018-07-26T16:37:36.698Z,20
2018-07-26T16:38:46.839Z,15
2018-07-26T16:39:56.976Z,15
2018-07-26T16:41:07.348Z,15
2018-07-26T16:42:17.180Z,10
2018-07-26T16:43:27.073Z,10
2018-07-26T16:44:37.194Z,10
2018-07-26T16:45:47.023Z,10
2018-07-26T16:46:57.278Z,10
2018-07-26T16:48:07.418Z,10
2018-07-26T16:49:17.552Z,10
2018-07-26T16:50:27.646Z,10
2018-07-26T16:51:37.483Z,10
2018-07-26T16:52:47.325Z,10